sensor_id;sensor_type;location;lat;lon;timestamp;pressure;altitude;pressure_sealevel;temperature;humidity
85315;BME280;75718;50.886;11.656;2024-03-06T00:01:47;98823.13;;;5.42;91.73
85315;BME280;75718;50.886;11.656;2024-03-06T00:04:12;98820.66;;;5.36;91.92
85315;BME280;75718;50.886;11.656;2024-03-06T00:06:38;98825.91;;;5.32;91.46
85315;BME280;75718;50.886;11.656;2024-03-06T00:09:03;98832.03;;;5.28;91.52
85315;BME280;75718;50.886;11.656;2024-03-06T00:11:28;98828.53;;;5.30;92.38
85315;BME280;75718;50.886;11.656;2024-03-06T00:13:54;98828.44;;;5.34;90.88
85315;BME280;75718;50.886;11.656;2024-03-06T00:16:19;98829.28;;;5.36;90.44
85315;BME280;75718;50.886;11.656;2024-03-06T00:18:45;98834.53;;;5.34;91.45
85315;BME280;75718;50.886;11.656;2024-03-06T00:21:10;98833.63;;;5.36;91.38
85315;BME280;75718;50.886;11.656;2024-03-06T00:23:35;98838.84;;;5.34;91.74
85315;BME280;75718;50.886;11.656;2024-03-06T00:26:02;98836.19;;;5.39;90.84
85315;BME280;75718;50.886;11.656;2024-03-06T00:28:28;98839.66;;;5.38;90.40
85315;BME280;75718;50.886;11.656;2024-03-06T00:30:53;98836.25;;;5.34;91.69
85315;BME280;75718;50.886;11.656;2024-03-06T00:33:18;98836.38;;;5.27;91.10
85315;BME280;75718;50.886;11.656;2024-03-06T00:35:43;98839.88;;;5.22;91.77
85315;BME280;75718;50.886;11.656;2024-03-06T00:38:09;98852.06;;;5.20;91.04
85315;BME280;75718;50.886;11.656;2024-03-06T00:40:34;98847.75;;;5.17;91.97
85315;BME280;75718;50.886;11.656;2024-03-06T00:42:59;98856.44;;;5.16;91.82
85315;BME280;75718;50.886;11.656;2024-03-06T00:45:25;98861.63;;;5.16;91.59
85315;BME280;75718;50.886;11.656;2024-03-06T00:47:50;98863.34;;;5.17;92.02
85315;BME280;75718;50.886;11.656;2024-03-06T00:50:15;98863.28;;;5.22;91.65
85315;BME280;75718;50.886;11.656;2024-03-06T00:52:42;98859.88;;;5.18;92.04
85315;BME280;75718;50.886;11.656;2024-03-06T00:55:08;98866.00;;;5.13;92.18
85315;BME280;75718;50.886;11.656;2024-03-06T00:57:35;98867.69;;;5.15;91.67
85315;BME280;75718;50.886;11.656;2024-03-06T01:00:00;98874.69;;;5.10;91.89
85315;BME280;75718;50.886;11.656;2024-03-06T01:02:25;98872.09;;;5.10;92.54
85315;BME280;75718;50.886;11.656;2024-03-06T01:04:50;98877.34;;;5.07;91.16
85315;BME280;75718;50.886;11.656;2024-03-06T01:07:16;98876.50;;;5.05;90.93
85315;BME280;75718;50.886;11.656;2024-03-06T01:09:41;98877.25;;;5.13;91.20
85315;BME280;75718;50.886;11.656;2024-03-06T01:12:06;98893.75;;;5.11;90.66
85315;BME280;75718;50.886;11.656;2024-03-06T01:14:31;98883.41;;;5.08;91.17
85315;BME280;75718;50.886;11.656;2024-03-06T01:16:57;98892.03;;;5.10;91.46
85315;BME280;75718;50.886;11.656;2024-03-06T01:19:23;98892.03;;;5.08;90.58
85315;BME280;75718;50.886;11.656;2024-03-06T01:21:48;98892.69;;;5.25;90.30
85315;BME280;75718;50.886;11.656;2024-03-06T01:24:14;98887.47;;;5.27;89.91
85315;BME280;75718;50.886;11.656;2024-03-06T01:26:39;98889.00;;;5.41;89.41
85315;BME280;75718;50.886;11.656;2024-03-06T01:29:05;98895.09;;;5.38;88.98
85315;BME280;75718;50.886;11.656;2024-03-06T01:31:31;98892.56;;;5.34;90.38
85315;BME280;75718;50.886;11.656;2024-03-06T01:33:56;98902.16;;;5.29;90.92
85315;BME280;75718;50.886;11.656;2024-03-06T01:36:21;98898.75;;;5.24;90.96
85315;BME280;75718;50.886;11.656;2024-03-06T01:38:46;98906.56;;;5.23;91.11
85315;BME280;75718;50.886;11.656;2024-03-06T01:41:12;98904.88;;;5.20;91.33
85315;BME280;75718;50.886;11.656;2024-03-06T01:43:38;98901.34;;;5.24;90.97
85315;BME280;75718;50.886;11.656;2024-03-06T01:46:06;98903.09;;;5.25;91.25
85315;BME280;75718;50.886;11.656;2024-03-06T01:48:32;98901.34;;;5.27;91.43
85315;BME280;75718;50.886;11.656;2024-03-06T01:50:59;98908.16;;;5.34;91.32
85315;BME280;75718;50.886;11.656;2024-03-06T01:53:29;98901.16;;;5.39;91.74
85315;BME280;75718;50.886;11.656;2024-03-06T01:55:55;98906.38;;;5.39;91.46
85315;BME280;75718;50.886;11.656;2024-03-06T01:58:21;98905.56;;;5.34;91.69
85315;BME280;75718;50.886;11.656;2024-03-06T02:00:49;98908.22;;;5.31;91.90
85315;BME280;75718;50.886;11.656;2024-03-06T02:03:14;98911.72;;;5.27;91.94
85315;BME280;75718;50.886;11.656;2024-03-06T02:05:40;98911.72;;;5.26;92.03
85315;BME280;75718;50.886;11.656;2024-03-06T02:08:07;98912.56;;;5.29;91.98
85315;BME280;75718;50.886;11.656;2024-03-06T02:10:32;98912.56;;;5.28;92.72
85315;BME280;75718;50.886;11.656;2024-03-06T02:12:59;98916.09;;;5.24;92.07
85315;BME280;75718;50.886;11.656;2024-03-06T02:15:24;98913.50;;;5.24;90.44
85315;BME280;75718;50.886;11.656;2024-03-06T02:17:49;98913.53;;;5.22;91.21
85315;BME280;75718;50.886;11.656;2024-03-06T02:20:16;98916.13;;;5.19;90.86
85315;BME280;75718;50.886;11.656;2024-03-06T02:22:41;98915.28;;;5.20;89.95
85315;BME280;75718;50.886;11.656;2024-03-06T02:25:07;98915.28;;;5.19;90.87
85315;BME280;75718;50.886;11.656;2024-03-06T02:27:32;98919.66;;;5.18;91.67
85315;BME280;75718;50.886;11.656;2024-03-06T02:29:58;98928.34;;;5.16;91.58
85315;BME280;75718;50.886;11.656;2024-03-06T02:32:24;98924.84;;;5.15;92.08
85315;BME280;75718;50.886;11.656;2024-03-06T02:34:50;98920.50;;;5.17;92.31
85315;BME280;75718;50.886;11.656;2024-03-06T02:37:16;98923.97;;;5.16;92.18
85315;BME280;75718;50.886;11.656;2024-03-06T02:39:41;98925.69;;;5.19;90.71
85315;BME280;75718;50.886;11.656;2024-03-06T02:42:06;98928.22;;;5.25;90.29
85315;BME280;75718;50.886;11.656;2024-03-06T02:44:32;98933.47;;;5.20;90.77
85315;BME280;75718;50.886;11.656;2024-03-06T02:46:57;98934.34;;;5.18;91.35
85315;BME280;75718;50.886;11.656;2024-03-06T02:49:23;98939.44;;;5.27;90.28
85315;BME280;75718;50.886;11.656;2024-03-06T02:51:48;98932.59;;;5.21;91.21
85315;BME280;75718;50.886;11.656;2024-03-06T02:54:13;98926.50;;;5.22;89.93
85315;BME280;75718;50.886;11.656;2024-03-06T02:56:39;98930.91;;;5.17;89.36
85315;BME280;75718;50.886;11.656;2024-03-06T02:59:04;98920.56;;;5.14;89.40
85315;BME280;75718;50.886;11.656;2024-03-06T03:01:30;98928.38;;;5.11;89.85
85315;BME280;75718;50.886;11.656;2024-03-06T03:03:57;98930.13;;;5.11;89.98
85315;BME280;75718;50.886;11.656;2024-03-06T03:06:22;98937.03;;;5.10;90.57
85315;BME280;75718;50.886;11.656;2024-03-06T03:08:51;98930.19;;;5.05;90.00
85315;BME280;75718;50.886;11.656;2024-03-06T03:11:16;98933.66;;;5.02;90.15
85315;BME280;75718;50.886;11.656;2024-03-06T03:13:41;98937.94;;;5.06;88.97
85315;BME280;75718;50.886;11.656;2024-03-06T03:16:07;98930.19;;;5.05;89.42
85315;BME280;75718;50.886;11.656;2024-03-06T03:18:39;98933.53;;;5.13;88.97
85315;BME280;75718;50.886;11.656;2024-03-06T03:21:08;98926.72;;;5.06;88.68
85315;BME280;75718;50.886;11.656;2024-03-06T03:23:35;98938.78;;;5.10;90.68
85315;BME280;75718;50.886;11.656;2024-03-06T03:26:01;98937.06;;;5.09;91.29
85315;BME280;75718;50.886;11.656;2024-03-06T03:28:26;98945.75;;;5.08;90.37
85315;BME280;75718;50.886;11.656;2024-03-06T03:30:52;98948.34;;;5.06;91.90
85315;BME280;75718;50.886;11.656;2024-03-06T03:33:17;98950.13;;;5.01;90.52
85315;BME280;75718;50.886;11.656;2024-03-06T03:35:42;98948.44;;;4.97;90.47
85315;BME280;75718;50.886;11.656;2024-03-06T03:38:08;98948.44;;;4.97;90.87
85315;BME280;75718;50.886;11.656;2024-03-06T03:40:33;98950.25;;;4.91;91.97
85315;BME280;75718;50.886;11.656;2024-03-06T03:42:58;98945.09;;;4.88;92.02
85315;BME280;75718;50.886;11.656;2024-03-06T03:45:24;98954.63;;;4.89;92.17
85315;BME280;75718;50.886;11.656;2024-03-06T03:47:49;98952.03;;;4.89;92.07
85315;BME280;75718;50.886;11.656;2024-03-06T03:50:14;98951.75;;;5.11;89.71
85315;BME280;75718;50.886;11.656;2024-03-06T03:52:40;98953.47;;;5.14;89.34
85315;BME280;75718;50.886;11.656;2024-03-06T03:55:07;98951.84;;;5.05;90.60
85315;BME280;75718;50.886;11.656;2024-03-06T03:57:33;98951.88;;;5.01;90.76
85315;BME280;75718;50.886;11.656;2024-03-06T03:59:58;98957.94;;;5.00;91.43
85315;BME280;75718;50.886;11.656;2024-03-06T04:02:23;98957.06;;;5.01;91.18
85315;BME280;75718;50.886;11.656;2024-03-06T04:04:48;98952.84;;;4.94;91.40
85315;BME280;75718;50.886;11.656;2024-03-06T04:07:14;98959.78;;;4.92;91.28
85315;BME280;75718;50.886;11.656;2024-03-06T04:09:41;98955.44;;;4.94;91.66
85315;BME280;75718;50.886;11.656;2024-03-06T04:12:06;98960.66;;;4.92;92.29
85315;BME280;75718;50.886;11.656;2024-03-06T04:14:31;98964.97;;;4.92;91.54
85315;BME280;75718;50.886;11.656;2024-03-06T04:16:57;98970.19;;;4.90;91.27
85315;BME280;75718;50.886;11.656;2024-03-06T04:19:22;98962.41;;;4.89;90.22
85315;BME280;75718;50.886;11.656;2024-03-06T04:21:47;98970.16;;;4.92;91.96
85315;BME280;75718;50.886;11.656;2024-03-06T04:24:12;98965.03;;;4.84;91.40
85315;BME280;75718;50.886;11.656;2024-03-06T04:26:38;98971.13;;;4.83;91.77
85315;BME280;75718;50.886;11.656;2024-03-06T04:29:03;98965.03;;;4.86;92.25
85315;BME280;75718;50.886;11.656;2024-03-06T04:31:28;98966.81;;;4.82;91.65
85315;BME280;75718;50.886;11.656;2024-03-06T04:33:54;98975.47;;;4.81;93.00
85315;BME280;75718;50.886;11.656;2024-03-06T04:36:19;98985.84;;;4.81;92.04
85315;BME280;75718;50.886;11.656;2024-03-06T04:38:45;98993.63;;;4.83;91.39
85315;BME280;75718;50.886;11.656;2024-03-06T04:41:10;98991.91;;;4.80;92.04
85315;BME280;75718;50.886;11.656;2024-03-06T04:43:36;98996.22;;;4.83;91.42
85315;BME280;75718;50.886;11.656;2024-03-06T04:46:01;98999.75;;;4.77;92.07
85315;BME280;75718;50.886;11.656;2024-03-06T04:48:26;98995.47;;;4.71;92.20
85315;BME280;75718;50.886;11.656;2024-03-06T04:50:52;99003.25;;;4.71;91.35
85315;BME280;75718;50.886;11.656;2024-03-06T04:53:18;99005.03;;;4.69;91.43
85315;BME280;75718;50.886;11.656;2024-03-06T04:55:45;99004.16;;;4.67;91.46
85315;BME280;75718;50.886;11.656;2024-03-06T04:58:12;99005.06;;;4.66;92.07
85315;BME280;75718;50.886;11.656;2024-03-06T05:00:37;99005.97;;;4.62;92.27
85315;BME280;75718;50.886;11.656;2024-03-06T05:03:02;99007.75;;;4.52;93.09
85315;BME280;75718;50.886;11.656;2024-03-06T05:05:28;99009.56;;;4.44;93.79
85315;BME280;75718;50.886;11.656;2024-03-06T05:07:54;99014.84;;;4.34;93.13
85315;BME280;75718;50.886;11.656;2024-03-06T05:10:19;99019.09;;;4.41;93.02
85315;BME280;75718;50.886;11.656;2024-03-06T05:12:44;99019.09;;;4.44;92.85
85315;BME280;75718;50.886;11.656;2024-03-06T05:15:10;99019.13;;;4.38;92.72
85315;BME280;75718;50.886;11.656;2024-03-06T05:17:36;99018.28;;;4.39;92.52
85315;BME280;75718;50.886;11.656;2024-03-06T05:20:01;99029.44;;;4.47;93.01
85315;BME280;75718;50.886;11.656;2024-03-06T05:22:29;99032.06;;;4.44;92.59
85315;BME280;75718;50.886;11.656;2024-03-06T05:24:54;99034.66;;;4.42;92.90
85315;BME280;75718;50.886;11.656;2024-03-06T05:27:20;99040.75;;;4.41;92.92
85315;BME280;75718;50.886;11.656;2024-03-06T05:29:46;99032.09;;;4.38;93.36
85315;BME280;75718;50.886;11.656;2024-03-06T05:32:11;99042.47;;;4.39;92.78
85315;BME280;75718;50.886;11.656;2024-03-06T05:34:37;99036.47;;;4.33;93.20
85315;BME280;75718;50.886;11.656;2024-03-06T05:37:02;99040.00;;;4.26;93.38
85315;BME280;75718;50.886;11.656;2024-03-06T05:39:31;99046.06;;;4.22;94.15
85315;BME280;75718;50.886;11.656;2024-03-06T05:42:01;99042.66;;;4.13;94.36
85315;BME280;75718;50.886;11.656;2024-03-06T05:44:30;99047.84;;;4.13;93.96
85315;BME280;75718;50.886;11.656;2024-03-06T05:47:00;99053.00;;;4.18;94.28
85315;BME280;75718;50.886;11.656;2024-03-06T05:49:27;99057.28;;;4.24;93.32
85315;BME280;75718;50.886;11.656;2024-03-06T05:51:52;99066.81;;;4.20;93.22
85315;BME280;75718;50.886;11.656;2024-03-06T05:54:20;99067.69;;;4.21;93.49
85315;BME280;75718;50.886;11.656;2024-03-06T05:56:47;99063.34;;;4.23;93.96
85315;BME280;75718;50.886;11.656;2024-03-06T05:59:13;99075.47;;;4.22;93.97
85315;BME280;75718;50.886;11.656;2024-03-06T06:01:38;99082.38;;;4.23;92.87
85315;BME280;75718;50.886;11.656;2024-03-06T06:04:03;99082.41;;;4.22;93.01
85315;BME280;75718;50.886;11.656;2024-03-06T06:06:29;99076.31;;;4.23;92.44
85315;BME280;75718;50.886;11.656;2024-03-06T06:08:55;99080.63;;;4.24;92.20
85315;BME280;75718;50.886;11.656;2024-03-06T06:11:20;99079.78;;;4.20;92.65
85315;BME280;75718;50.886;11.656;2024-03-06T06:13:45;99078.94;;;4.18;92.45
85315;BME280;75718;50.886;11.656;2024-03-06T06:16:10;99075.50;;;4.18;92.03
85315;BME280;75718;50.886;11.656;2024-03-06T06:18:36;99087.63;;;4.13;91.53
85315;BME280;75718;50.886;11.656;2024-03-06T06:21:01;99078.97;;;4.13;92.62
85315;BME280;75718;50.886;11.656;2024-03-06T06:23:26;99088.50;;;4.12;92.13
85315;BME280;75718;50.886;11.656;2024-03-06T06:25:52;99082.38;;;4.19;91.26
85315;BME280;75718;50.886;11.656;2024-03-06T06:28:17;99081.47;;;4.27;93.08
85315;BME280;75718;50.886;11.656;2024-03-06T06:30:43;99097.00;;;4.36;92.34
85315;BME280;75718;50.886;11.656;2024-03-06T06:33:08;99096.09;;;4.42;92.27
85315;BME280;75718;50.886;11.656;2024-03-06T06:35:34;99096.00;;;4.57;91.56
85315;BME280;75718;50.886;11.656;2024-03-06T06:38:03;99096.78;;;4.65;91.18
85315;BME280;75718;50.886;11.656;2024-03-06T06:40:29;99101.91;;;4.74;90.52
85315;BME280;75718;50.886;11.656;2024-03-06T06:42:55;99112.25;;;4.81;89.23
85315;BME280;75718;50.886;11.656;2024-03-06T06:45:21;99115.47;;;5.04;88.55
85315;BME280;75718;50.886;11.656;2024-03-06T06:47:50;99115.41;;;5.13;87.96
85315;BME280;75718;50.886;11.656;2024-03-06T06:50:16;99117.00;;;5.26;87.68
85315;BME280;75718;50.886;11.656;2024-03-06T06:52:42;99122.94;;;5.42;86.98
85315;BME280;75718;50.886;11.656;2024-03-06T06:55:07;99123.63;;;5.56;87.15
85315;BME280;75718;50.886;11.656;2024-03-06T06:57:36;99124.38;;;5.69;87.53
85315;BME280;75718;50.886;11.656;2024-03-06T07:00:02;99122.59;;;5.72;86.90
85315;BME280;75718;50.886;11.656;2024-03-06T07:02:37;99124.25;;;5.84;85.92
85315;BME280;75718;50.886;11.656;2024-03-06T07:05:05;99128.53;;;5.88;85.94
85315;BME280;75718;50.886;11.656;2024-03-06T07:07:30;99135.47;;;5.86;86.43
85315;BME280;75718;50.886;11.656;2024-03-06T07:09:55;99136.31;;;5.88;86.14
85315;BME280;75718;50.886;11.656;2024-03-06T07:12:21;99132.91;;;5.83;84.69
85315;BME280;75718;50.886;11.656;2024-03-06T07:14:47;99134.75;;;5.70;85.05
85315;BME280;75718;50.886;11.656;2024-03-06T07:17:12;99142.63;;;5.63;86.37
85315;BME280;75718;50.886;11.656;2024-03-06T07:19:37;99133.25;;;5.51;86.37
85315;BME280;75718;50.886;11.656;2024-03-06T07:22:04;99140.09;;;5.58;86.84
85315;BME280;75718;50.886;11.656;2024-03-06T07:24:29;99152.28;;;5.52;87.25
85315;BME280;75718;50.886;11.656;2024-03-06T07:26:54;99151.44;;;5.51;87.28
85315;BME280;75718;50.886;11.656;2024-03-06T07:29:20;99152.28;;;5.52;87.41
85315;BME280;75718;50.886;11.656;2024-03-06T07:31:45;99156.50;;;5.63;87.39
85315;BME280;75718;50.886;11.656;2024-03-06T07:34:10;99163.28;;;5.82;85.95
85315;BME280;75718;50.886;11.656;2024-03-06T07:36:36;99164.84;;;5.94;85.39
85315;BME280;75718;50.886;11.656;2024-03-06T07:39:02;99165.53;;;6.10;84.25
85315;BME280;75718;50.886;11.656;2024-03-06T07:41:28;99164.34;;;6.35;84.89
85315;BME280;75718;50.886;11.656;2024-03-06T07:43:53;99168.34;;;6.58;83.51
85315;BME280;75718;50.886;11.656;2024-03-06T07:46:19;99162.91;;;6.75;82.80
85315;BME280;75718;50.886;11.656;2024-03-06T07:48:44;99166.16;;;6.90;80.63
85315;BME280;75718;50.886;11.656;2024-03-06T07:51:09;99164.19;;;7.03;79.63
85315;BME280;75718;50.886;11.656;2024-03-06T07:53:35;99166.44;;;7.25;80.44
85315;BME280;75718;50.886;11.656;2024-03-06T07:56:00;99176.84;;;7.26;78.94
85315;BME280;75718;50.886;11.656;2024-03-06T07:58:25;99169.56;;;7.45;78.10
85315;BME280;75718;50.886;11.656;2024-03-06T08:00:51;99172.75;;;7.60;77.50
85315;BME280;75718;50.886;11.656;2024-03-06T08:03:20;99166.84;;;7.99;77.41
85315;BME280;75718;50.886;11.656;2024-03-06T08:05:45;99169.31;;;8.05;76.04
85315;BME280;75718;50.886;11.656;2024-03-06T08:08:11;99165.66;;;8.15;75.41
85315;BME280;75718;50.886;11.656;2024-03-06T08:10:36;99163.34;;;8.42;74.57
85315;BME280;75718;50.886;11.656;2024-03-06T08:13:01;99167.53;;;8.50;74.00
85315;BME280;75718;50.886;11.656;2024-03-06T08:15:26;99169.75;;;8.67;73.90
85315;BME280;75718;50.886;11.656;2024-03-06T08:17:52;99165.22;;;9.11;72.53
85315;BME280;75718;50.886;11.656;2024-03-06T08:20:17;99156.78;;;9.35;71.45
85315;BME280;75718;50.886;11.656;2024-03-06T08:22:43;99167.28;;;9.66;70.18
85315;BME280;75718;50.886;11.656;2024-03-06T08:25:10;99164.31;;;9.80;67.90
85315;BME280;75718;50.886;11.656;2024-03-06T08:27:37;99175.88;;;10.05;67.42
85315;BME280;75718;50.886;11.656;2024-03-06T08:30:03;99169.00;;;10.01;64.62
85315;BME280;75718;50.886;11.656;2024-03-06T08:32:32;99176.28;;;10.21;64.58
85315;BME280;75718;50.886;11.656;2024-03-06T08:35:00;99180.88;;;10.44;65.74
85315;BME280;75718;50.886;11.656;2024-03-06T08:37:25;99173.09;;;10.41;64.23
85315;BME280;75718;50.886;11.656;2024-03-06T08:39:51;99175.72;;;10.70;65.99
85315;BME280;75718;50.886;11.656;2024-03-06T08:42:17;99163.56;;;10.94;65.14
85315;BME280;75718;50.886;11.656;2024-03-06T08:44:44;99168.09;;;10.89;63.16
85315;BME280;75718;50.886;11.656;2024-03-06T08:47:11;99175.00;;;11.19;62.55
85315;BME280;75718;50.886;11.656;2024-03-06T08:49:36;99171.75;;;11.38;62.79
85315;BME280;75718;50.886;11.656;2024-03-06T08:52:02;99167.13;;;11.72;61.55
85315;BME280;75718;50.886;11.656;2024-03-06T08:54:27;99159.91;;;11.27;60.13
85315;BME280;75718;50.886;11.656;2024-03-06T08:56:52;99183.53;;;11.26;62.62
85315;BME280;75718;50.886;11.656;2024-03-06T08:59:23;99192.88;;;11.08;63.08
85315;BME280;75718;50.886;11.656;2024-03-06T09:01:53;99173.28;;;11.45;63.15
85315;BME280;75718;50.886;11.656;2024-03-06T09:04:19;99177.63;;;11.46;63.42
85315;BME280;75718;50.886;11.656;2024-03-06T09:06:44;99185.78;;;11.38;61.50
85315;BME280;75718;50.886;11.656;2024-03-06T09:09:10;99182.25;;;11.38;61.24
85315;BME280;75718;50.886;11.656;2024-03-06T09:11:35;99178.88;;;11.35;62.39
85315;BME280;75718;50.886;11.656;2024-03-06T09:14:00;99198.38;;;10.72;62.84
85315;BME280;75718;50.886;11.656;2024-03-06T09:16:26;99211.78;;;10.01;66.49
85315;BME280;75718;50.886;11.656;2024-03-06T09:18:51;99208.50;;;9.58;70.14
85315;BME280;75718;50.886;11.656;2024-03-06T09:21:16;99214.72;;;9.55;69.28
85315;BME280;75718;50.886;11.656;2024-03-06T09:23:42;99225.28;;;9.52;67.60
85315;BME280;75718;50.886;11.656;2024-03-06T09:26:07;99223.78;;;9.42;69.14
85315;BME280;75718;50.886;11.656;2024-03-06T09:28:32;99226.09;;;9.54;67.90
85315;BME280;75718;50.886;11.656;2024-03-06T09:30:58;99227.59;;;10.59;65.74
85315;BME280;75718;50.886;11.656;2024-03-06T09:33:23;99211.56;;;11.52;63.95
85315;BME280;75718;50.886;11.656;2024-03-06T09:35:48;99204.31;;;11.85;60.78
85315;BME280;75718;50.886;11.656;2024-03-06T09:38:13;99210.63;;;12.05;59.96
85315;BME280;75718;50.886;11.656;2024-03-06T09:40:39;99197.00;;;12.43;58.82
85315;BME280;75718;50.886;11.656;2024-03-06T09:43:07;99197.63;;;12.72;57.49
85315;BME280;75718;50.886;11.656;2024-03-06T09:45:32;99211.78;;;12.22;58.39
85315;BME280;75718;50.886;11.656;2024-03-06T09:47:58;99206.69;;;12.41;60.73
85315;BME280;75718;50.886;11.656;2024-03-06T09:50:24;99209.75;;;12.99;58.76
85315;BME280;75718;50.886;11.656;2024-03-06T09:52:52;99202.63;;;13.02;58.00
85315;BME280;75718;50.886;11.656;2024-03-06T09:55:19;99200.94;;;13.44;57.12
85315;BME280;75718;50.886;11.656;2024-03-06T09:57:45;99208.44;;;13.53;56.45
85315;BME280;75718;50.886;11.656;2024-03-06T10:00:10;99205.41;;;13.83;56.41
85315;BME280;75718;50.886;11.656;2024-03-06T10:02:45;99208.44;;;13.74;56.49
85315;BME280;75718;50.886;11.656;2024-03-06T10:05:21;99220.09;;;13.69;56.96
85315;BME280;75718;50.886;11.656;2024-03-06T10:07:47;99214.69;;;13.72;54.49
85315;BME280;75718;50.886;11.656;2024-03-06T10:10:12;99215.50;;;13.74;52.97
85315;BME280;75718;50.886;11.656;2024-03-06T10:12:39;99211.88;;;13.96;55.18
85315;BME280;75718;50.886;11.656;2024-03-06T10:15:04;99211.41;;;14.06;55.05
85315;BME280;75718;50.886;11.656;2024-03-06T10:17:30;99218.34;;;13.89;54.10
85315;BME280;75718;50.886;11.656;2024-03-06T10:19:55;99216.09;;;13.80;53.70
85315;BME280;75718;50.886;11.656;2024-03-06T10:22:22;99210.91;;;13.98;53.41
85315;BME280;75718;50.886;11.656;2024-03-06T10:24:49;99202.78;;;14.81;53.10
85315;BME280;75718;50.886;11.656;2024-03-06T10:27:15;99208.56;;;14.89;52.06
85315;BME280;75718;50.886;11.656;2024-03-06T10:29:44;99194.13;;;15.34;52.40
85315;BME280;75718;50.886;11.656;2024-03-06T10:32:09;99203.13;;;14.73;51.24
85315;BME280;75718;50.886;11.656;2024-03-06T10:34:37;99201.53;;;15.44;50.53
85315;BME280;75718;50.886;11.656;2024-03-06T10:37:02;99204.25;;;15.43;50.91
85315;BME280;75718;50.886;11.656;2024-03-06T10:39:33;99200.09;;;15.56;50.45
85315;BME280;75718;50.886;11.656;2024-03-06T10:42:04;99203.84;;;15.68;49.10
85315;BME280;75718;50.886;11.656;2024-03-06T10:44:33;99201.22;;;15.85;49.84
85315;BME280;75718;50.886;11.656;2024-03-06T10:47:05;99202.13;;;15.67;49.64
85315;BME280;75718;50.886;11.656;2024-03-06T10:49:31;99200.88;;;15.74;48.66
85315;BME280;75718;50.886;11.656;2024-03-06T10:52:01;99204.06;;;15.81;47.36
85315;BME280;75718;50.886;11.656;2024-03-06T10:54:28;99199.09;;;15.92;46.03
85315;BME280;75718;50.886;11.656;2024-03-06T10:56:55;99196.75;;;16.03;44.24
85315;BME280;75718;50.886;11.656;2024-03-06T10:59:20;99196.47;;;16.09;46.00
85315;BME280;75718;50.886;11.656;2024-03-06T11:01:46;99198.84;;;16.13;46.59
85315;BME280;75718;50.886;11.656;2024-03-06T11:04:13;99199.75;;;15.97;46.71
85315;BME280;75718;50.886;11.656;2024-03-06T11:06:40;99192.63;;;16.65;45.76
85315;BME280;75718;50.886;11.656;2024-03-06T11:09:05;99184.97;;;16.91;45.63
85315;BME280;75718;50.886;11.656;2024-03-06T11:11:50;99184.97;;;17.06;44.99
85315;BME280;75718;50.886;11.656;2024-03-06T11:14:22;99184.50;;;16.68;45.35
85315;BME280;75718;50.886;11.656;2024-03-06T11:17:00;99181.97;;;16.82;45.55
85315;BME280;75718;50.886;11.656;2024-03-06T11:19:26;99179.53;;;17.09;43.90
85315;BME280;75718;50.886;11.656;2024-03-06T11:21:51;99177.72;;;17.56;42.71
85315;BME280;75718;50.886;11.656;2024-03-06T11:24:17;99175.59;;;17.92;42.51
85315;BME280;75718;50.886;11.656;2024-03-06T11:26:59;99174.56;;;17.94;41.21
85315;BME280;75718;50.886;11.656;2024-03-06T11:29:27;99172.56;;;17.84;40.88
85315;BME280;75718;50.886;11.656;2024-03-06T11:32:11;99173.38;;;17.24;42.19
85315;BME280;75718;50.886;11.656;2024-03-06T11:34:37;99185.06;;;17.05;43.06
85315;BME280;75718;50.886;11.656;2024-03-06T11:37:04;99182.94;;;17.11;42.31
85315;BME280;75718;50.886;11.656;2024-03-06T11:39:33;99179.56;;;17.69;41.16
85315;BME280;75718;50.886;11.656;2024-03-06T11:41:59;99174.88;;;17.74;40.80
85315;BME280;75718;50.886;11.656;2024-03-06T11:44:26;99176.72;;;17.43;39.72
85315;BME280;75718;50.886;11.656;2024-03-06T11:47:04;99181.50;;;17.21;41.46
85315;BME280;75718;50.886;11.656;2024-03-06T11:49:31;99170.56;;;17.87;41.63
85315;BME280;75718;50.886;11.656;2024-03-06T11:52:03;99174.31;;;18.28;39.39
85315;BME280;75718;50.886;11.656;2024-03-06T11:54:30;99176.19;;;17.97;39.89
85315;BME280;75718;50.886;11.656;2024-03-06T11:56:58;99172.75;;;17.95;39.79
85315;BME280;75718;50.886;11.656;2024-03-06T11:59:25;99179.94;;;17.02;39.51
85315;BME280;75718;50.886;11.656;2024-03-06T12:01:54;99174.69;;;16.70;41.70
85315;BME280;75718;50.886;11.656;2024-03-06T12:04:20;99173.56;;;17.37;41.49
85315;BME280;75718;50.886;11.656;2024-03-06T12:06:46;99180.66;;;17.36;40.26
85315;BME280;75718;50.886;11.656;2024-03-06T12:09:12;99180.28;;;17.57;38.83
85315;BME280;75718;50.886;11.656;2024-03-06T12:11:38;99179.00;;;17.94;42.20
85315;BME280;75718;50.886;11.656;2024-03-06T12:14:03;99173.09;;;17.75;40.83
85315;BME280;75718;50.886;11.656;2024-03-06T12:16:29;99178.78;;;17.83;39.45
85315;BME280;75718;50.886;11.656;2024-03-06T12:18:59;99181.44;;;17.83;40.20
85315;BME280;75718;50.886;11.656;2024-03-06T12:21:31;99176.03;;;18.57;37.72
85315;BME280;75718;50.886;11.656;2024-03-06T12:24:06;99176.59;;;17.75;40.75
85315;BME280;75718;50.886;11.656;2024-03-06T12:26:32;99183.75;;;17.44;38.84
85315;BME280;75718;50.886;11.656;2024-03-06T12:29:08;99179.78;;;17.20;39.63
85315;BME280;75718;50.886;11.656;2024-03-06T12:31:36;99189.56;;;17.50;40.42
85315;BME280;75718;50.886;11.656;2024-03-06T12:34:03;99188.34;;;17.25;41.72
85315;BME280;75718;50.886;11.656;2024-03-06T12:36:28;99180.25;;;17.73;40.36
85315;BME280;75718;50.886;11.656;2024-03-06T12:38:56;99183.06;;;17.25;38.87
85315;BME280;75718;50.886;11.656;2024-03-06T12:41:21;99190.44;;;18.09;37.79
85315;BME280;75718;50.886;11.656;2024-03-06T12:43:47;99184.53;;;18.20;38.37
85315;BME280;75718;50.886;11.656;2024-03-06T12:46:12;99180.72;;;17.95;38.76
85315;BME280;75718;50.886;11.656;2024-03-06T12:48:37;99189.13;;;17.87;38.35
85315;BME280;75718;50.886;11.656;2024-03-06T12:51:03;99178.94;;;17.80;38.67
85315;BME280;75718;50.886;11.656;2024-03-06T12:53:30;99180.41;;;17.25;38.50